sensor_id;sensor_type;location;lat;lon;timestamp;temperature;humidity
48666;DHT22;34452;50.796;4.994;2023-06-26T00:02:06;22.10;99.90
48666;DHT22;34452;50.796;4.994;2023-06-26T00:04:32;22.10;99.90
48666;DHT22;34452;50.796;4.994;2023-06-26T00:06:58;22.10;99.90
48666;DHT22;34452;50.796;4.994;2023-06-26T00:09:23;22.10;99.90
48666;DHT22;34452;50.796;4.994;2023-06-26T00:11:49;22.10;99.90
48666;DHT22;34452;50.796;4.994;2023-06-26T00:14:15;22.10;99.90
48666;DHT22;34452;50.796;4.994;2023-06-26T00:16:41;22.00;99.90
48666;DHT22;34452;50.796;4.994;2023-06-26T00:19:08;22.00;99.90
48666;DHT22;34452;50.796;4.994;2023-06-26T00:21:34;22.00;99.90
48666;DHT22;34452;50.796;4.994;2023-06-26T00:23:59;22.00;99.90
48666;DHT22;34452;50.796;4.994;2023-06-26T00:26:25;22.00;99.90
48666;DHT22;34452;50.796;4.994;2023-06-26T00:28:51;21.90;99.90
48666;DHT22;34452;50.796;4.994;2023-06-26T00:31:17;21.90;99.90
48666;DHT22;34452;50.796;4.994;2023-06-26T00:33:42;21.90;99.90
48666;DHT22;34452;50.796;4.994;2023-06-26T00:36:08;21.90;99.90
48666;DHT22;34452;50.796;4.994;2023-06-26T00:38:35;21.80;99.90
48666;DHT22;34452;50.796;4.994;2023-06-26T00:41:00;21.80;99.90
48666;DHT22;34452;50.796;4.994;2023-06-26T00:43:26;21.80;99.90
48666;DHT22;34452;50.796;4.994;2023-06-26T00:45:52;21.80;99.90
48666;DHT22;34452;50.796;4.994;2023-06-26T00:48:18;21.70;99.90
48666;DHT22;34452;50.796;4.994;2023-06-26T00:50:44;21.70;99.90
48666;DHT22;34452;50.796;4.994;2023-06-26T00:53:11;21.70;99.90
48666;DHT22;34452;50.796;4.994;2023-06-26T00:55:36;21.60;99.90
48666;DHT22;34452;50.796;4.994;2023-06-26T00:58:02;21.60;99.90
48666;DHT22;34452;50.796;4.994;2023-06-26T01:00:28;21.60;99.90
48666;DHT22;34452;50.796;4.994;2023-06-26T01:02:54;21.50;99.90
48666;DHT22;34452;50.796;4.994;2023-06-26T01:05:25;21.50;99.90
48666;DHT22;34452;50.796;4.994;2023-06-26T01:07:50;21.50;99.90
48666;DHT22;34452;50.796;4.994;2023-06-26T01:10:16;21.50;99.90
48666;DHT22;34452;50.796;4.994;2023-06-26T01:12:42;21.50;99.90
48666;DHT22;34452;50.796;4.994;2023-06-26T01:15:09;21.40;99.90
48666;DHT22;34452;50.796;4.994;2023-06-26T01:17:37;21.30;99.90
48666;DHT22;34452;50.796;4.994;2023-06-26T01:20:05;21.30;99.90
48666;DHT22;34452;50.796;4.994;2023-06-26T01:22:58;21.30;99.90
48666;DHT22;34452;50.796;4.994;2023-06-26T01:25:53;21.30;99.90
48666;DHT22;34452;50.796;4.994;2023-06-26T01:28:22;21.20;99.90
48666;DHT22;34452;50.796;4.994;2023-06-26T01:30:50;21.20;99.90
48666;DHT22;34452;50.796;4.994;2023-06-26T01:33:16;21.10;99.90
48666;DHT22;34452;50.796;4.994;2023-06-26T01:35:42;21.20;99.90
48666;DHT22;34452;50.796;4.994;2023-06-26T01:38:24;21.10;99.90
48666;DHT22;34452;50.796;4.994;2023-06-26T01:40:51;21.10;99.90
48666;DHT22;34452;50.796;4.994;2023-06-26T01:46:15;21.00;99.90
48666;DHT22;34452;50.796;4.994;2023-06-26T01:51:32;20.80;99.90
48666;DHT22;34452;50.796;4.994;2023-06-26T01:54:00;20.80;99.90
48666;DHT22;34452;50.796;4.994;2023-06-26T01:56:28;20.70;99.90
48666;DHT22;34452;50.796;4.994;2023-06-26T01:58:55;20.70;99.90
48666;DHT22;34452;50.796;4.994;2023-06-26T02:01:21;20.60;99.90
48666;DHT22;34452;50.796;4.994;2023-06-26T02:03:48;20.60;99.90
48666;DHT22;34452;50.796;4.994;2023-06-26T02:06:13;20.50;99.90
48666;DHT22;34452;50.796;4.994;2023-06-26T02:08:40;20.40;99.90
48666;DHT22;34452;50.796;4.994;2023-06-26T02:11:06;20.40;99.90
48666;DHT22;34452;50.796;4.994;2023-06-26T02:13:32;20.40;99.90
48666;DHT22;34452;50.796;4.994;2023-06-26T02:15:57;20.30;99.90
48666;DHT22;34452;50.796;4.994;2023-06-26T02:18:23;20.30;99.90
48666;DHT22;34452;50.796;4.994;2023-06-26T02:20:50;20.30;99.90
48666;DHT22;34452;50.796;4.994;2023-06-26T02:23:15;20.20;99.90
48666;DHT22;34452;50.796;4.994;2023-06-26T02:25:41;20.10;99.90
48666;DHT22;34452;50.796;4.994;2023-06-26T02:28:07;20.10;99.90
48666;DHT22;34452;50.796;4.994;2023-06-26T02:30:33;20.00;99.90
48666;DHT22;34452;50.796;4.994;2023-06-26T02:32:58;20.00;99.90
48666;DHT22;34452;50.796;4.994;2023-06-26T02:35:24;20.00;99.90
48666;DHT22;34452;50.796;4.994;2023-06-26T02:37:50;20.00;99.90
48666;DHT22;34452;50.796;4.994;2023-06-26T02:40:16;19.90;99.90
48666;DHT22;34452;50.796;4.994;2023-06-26T02:42:41;19.90;99.90
48666;DHT22;34452;50.796;4.994;2023-06-26T02:45:08;19.90;99.90
48666;DHT22;34452;50.796;4.994;2023-06-26T02:47:33;19.90;99.90
48666;DHT22;34452;50.796;4.994;2023-06-26T02:49:59;19.80;99.90
48666;DHT22;34452;50.796;4.994;2023-06-26T02:52:25;19.80;99.90
48666;DHT22;34452;50.796;4.994;2023-06-26T02:54:50;19.80;99.90
48666;DHT22;34452;50.796;4.994;2023-06-26T02:57:16;19.80;99.90
48666;DHT22;34452;50.796;4.994;2023-06-26T02:59:42;19.80;99.90
48666;DHT22;34452;50.796;4.994;2023-06-26T03:02:08;19.80;99.90
48666;DHT22;34452;50.796;4.994;2023-06-26T03:04:34;19.70;99.90
48666;DHT22;34452;50.796;4.994;2023-06-26T03:07:02;19.70;99.90
48666;DHT22;34452;50.796;4.994;2023-06-26T03:09:28;19.70;99.90
48666;DHT22;34452;50.796;4.994;2023-06-26T03:11:54;19.70;99.90
48666;DHT22;34452;50.796;4.994;2023-06-26T03:14:21;19.60;99.90
48666;DHT22;34452;50.796;4.994;2023-06-26T03:16:47;19.60;99.90
48666;DHT22;34452;50.796;4.994;2023-06-26T03:19:12;19.50;99.90
48666;DHT22;34452;50.796;4.994;2023-06-26T03:21:38;19.50;99.90
48666;DHT22;34452;50.796;4.994;2023-06-26T03:24:04;19.50;99.90
48666;DHT22;34452;50.796;4.994;2023-06-26T03:26:30;19.50;99.90
48666;DHT22;34452;50.796;4.994;2023-06-26T03:28:56;19.40;99.90
48666;DHT22;34452;50.796;4.994;2023-06-26T03:31:22;19.40;99.90
48666;DHT22;34452;50.796;4.994;2023-06-26T03:33:47;19.40;99.90
48666;DHT22;34452;50.796;4.994;2023-06-26T03:36:13;19.40;99.90
48666;DHT22;34452;50.796;4.994;2023-06-26T03:38:39;19.40;99.90
48666;DHT22;34452;50.796;4.994;2023-06-26T03:41:05;19.30;99.90
48666;DHT22;34452;50.796;4.994;2023-06-26T03:43:30;19.30;99.90
48666;DHT22;34452;50.796;4.994;2023-06-26T03:45:56;19.30;99.90
48666;DHT22;34452;50.796;4.994;2023-06-26T03:48:22;19.30;99.90
48666;DHT22;34452;50.796;4.994;2023-06-26T03:50:48;19.30;99.90
48666;DHT22;34452;50.796;4.994;2023-06-26T03:53:13;19.30;99.90
48666;DHT22;34452;50.796;4.994;2023-06-26T03:55:39;19.20;99.90
48666;DHT22;34452;50.796;4.994;2023-06-26T03:58:05;19.20;99.90
48666;DHT22;34452;50.796;4.994;2023-06-26T04:00:31;19.20;99.90
48666;DHT22;34452;50.796;4.994;2023-06-26T04:02:56;19.20;99.90
48666;DHT22;34452;50.796;4.994;2023-06-26T04:05:23;19.20;99.90
48666;DHT22;34452;50.796;4.994;2023-06-26T04:07:50;19.20;99.90
48666;DHT22;34452;50.796;4.994;2023-06-26T04:10:16;19.20;99.90
48666;DHT22;34452;50.796;4.994;2023-06-26T04:12:42;19.20;99.90
48666;DHT22;34452;50.796;4.994;2023-06-26T04:15:08;19.20;99.90
48666;DHT22;34452;50.796;4.994;2023-06-26T04:17:34;19.20;99.90
48666;DHT22;34452;50.796;4.994;2023-06-26T04:20:00;19.20;99.90
48666;DHT22;34452;50.796;4.994;2023-06-26T04:22:25;19.20;99.90
48666;DHT22;34452;50.796;4.994;2023-06-26T04:24:51;19.10;99.90
48666;DHT22;34452;50.796;4.994;2023-06-26T04:27:17;19.10;99.90
48666;DHT22;34452;50.796;4.994;2023-06-26T04:29:43;19.10;99.90
48666;DHT22;34452;50.796;4.994;2023-06-26T04:32:09;19.00;99.90
48666;DHT22;34452;50.796;4.994;2023-06-26T04:34:35;19.00;99.90
48666;DHT22;34452;50.796;4.994;2023-06-26T04:37:04;19.00;99.90
48666;DHT22;34452;50.796;4.994;2023-06-26T04:39:30;19.10;99.90
48666;DHT22;34452;50.796;4.994;2023-06-26T04:41:56;19.10;99.90
48666;DHT22;34452;50.796;4.994;2023-06-26T04:44:21;19.20;99.90
48666;DHT22;34452;50.796;4.994;2023-06-26T04:46:47;19.20;99.90
48666;DHT22;34452;50.796;4.994;2023-06-26T04:49:13;19.20;99.90
48666;DHT22;34452;50.796;4.994;2023-06-26T04:51:39;19.20;99.90
48666;DHT22;34452;50.796;4.994;2023-06-26T04:54:07;19.10;99.90
48666;DHT22;34452;50.796;4.994;2023-06-26T04:56:33;19.10;99.90
48666;DHT22;34452;50.796;4.994;2023-06-26T04:58:59;19.10;99.90
48666;DHT22;34452;50.796;4.994;2023-06-26T05:01:25;19.10;99.90
48666;DHT22;34452;50.796;4.994;2023-06-26T05:03:53;19.20;99.90
48666;DHT22;34452;50.796;4.994;2023-06-26T05:06:19;19.20;99.90
48666;DHT22;34452;50.796;4.994;2023-06-26T05:08:45;19.20;99.90
48666;DHT22;34452;50.796;4.994;2023-06-26T05:11:10;19.20;99.90
48666;DHT22;34452;50.796;4.994;2023-06-26T05:13:36;19.20;99.90
48666;DHT22;34452;50.796;4.994;2023-06-26T05:16:02;19.20;99.90
48666;DHT22;34452;50.796;4.994;2023-06-26T05:18:28;19.20;99.90
48666;DHT22;34452;50.796;4.994;2023-06-26T05:20:54;19.20;99.90
48666;DHT22;34452;50.796;4.994;2023-06-26T05:23:19;19.30;99.90
48666;DHT22;34452;50.796;4.994;2023-06-26T05:25:47;19.30;99.90
48666;DHT22;34452;50.796;4.994;2023-06-26T05:28:13;19.30;99.90
48666;DHT22;34452;50.796;4.994;2023-06-26T05:30:40;19.30;99.90
48666;DHT22;34452;50.796;4.994;2023-06-26T05:33:08;19.30;99.90
48666;DHT22;34452;50.796;4.994;2023-06-26T05:35:36;19.30;99.90
48666;DHT22;34452;50.796;4.994;2023-06-26T05:38:02;19.30;99.90
48666;DHT22;34452;50.796;4.994;2023-06-26T05:40:28;19.30;99.90
48666;DHT22;34452;50.796;4.994;2023-06-26T05:42:54;19.40;99.90
48666;DHT22;34452;50.796;4.994;2023-06-26T05:45:20;19.40;99.90
48666;DHT22;34452;50.796;4.994;2023-06-26T05:47:46;19.40;99.90
48666;DHT22;34452;50.796;4.994;2023-06-26T05:50:13;19.30;99.90
48666;DHT22;34452;50.796;4.994;2023-06-26T05:52:39;19.30;99.90
48666;DHT22;34452;50.796;4.994;2023-06-26T05:55:06;19.30;99.90
48666;DHT22;34452;50.796;4.994;2023-06-26T05:57:32;19.30;99.90
48666;DHT22;34452;50.796;4.994;2023-06-26T05:59:58;19.40;99.90
48666;DHT22;34452;50.796;4.994;2023-06-26T06:02:23;19.30;99.90
48666;DHT22;34452;50.796;4.994;2023-06-26T06:04:49;19.30;99.90
48666;DHT22;34452;50.796;4.994;2023-06-26T06:07:15;19.30;99.90
48666;DHT22;34452;50.796;4.994;2023-06-26T06:09:41;19.30;99.90
48666;DHT22;34452;50.796;4.994;2023-06-26T06:12:07;19.30;99.90
48666;DHT22;34452;50.796;4.994;2023-06-26T06:14:33;19.40;99.90
48666;DHT22;34452;50.796;4.994;2023-06-26T06:17:00;19.30;99.90
48666;DHT22;34452;50.796;4.994;2023-06-26T06:19:25;19.30;99.90
48666;DHT22;34452;50.796;4.994;2023-06-26T06:21:52;19.40;99.90
48666;DHT22;34452;50.796;4.994;2023-06-26T06:24:17;19.50;99.90
48666;DHT22;34452;50.796;4.994;2023-06-26T06:26:43;19.60;99.90
48666;DHT22;34452;50.796;4.994;2023-06-26T06:29:09;19.60;99.90
48666;DHT22;34452;50.796;4.994;2023-06-26T06:31:35;19.70;99.90
48666;DHT22;34452;50.796;4.994;2023-06-26T06:34:01;19.60;99.90
48666;DHT22;34452;50.796;4.994;2023-06-26T06:36:27;19.50;99.90
48666;DHT22;34452;50.796;4.994;2023-06-26T06:38:53;19.50;99.90
48666;DHT22;34452;50.796;4.994;2023-06-26T06:41:20;19.60;99.90
48666;DHT22;34452;50.796;4.994;2023-06-26T06:43:46;19.70;99.90
48666;DHT22;34452;50.796;4.994;2023-06-26T06:46:12;19.60;99.90
48666;DHT22;34452;50.796;4.994;2023-06-26T06:48:37;19.60;99.90
48666;DHT22;34452;50.796;4.994;2023-06-26T06:51:03;19.60;99.90
48666;DHT22;34452;50.796;4.994;2023-06-26T06:53:29;19.70;99.90
48666;DHT22;34452;50.796;4.994;2023-06-26T06:55:55;19.60;99.90
48666;DHT22;34452;50.796;4.994;2023-06-26T06:58:21;19.70;99.90
48666;DHT22;34452;50.796;4.994;2023-06-26T07:00:48;19.60;99.90
48666;DHT22;34452;50.796;4.994;2023-06-26T07:03:14;19.70;99.90
48666;DHT22;34452;50.796;4.994;2023-06-26T07:05:41;19.70;99.90
48666;DHT22;34452;50.796;4.994;2023-06-26T07:08:07;19.80;99.90
48666;DHT22;34452;50.796;4.994;2023-06-26T07:10:34;19.80;99.90
48666;DHT22;34452;50.796;4.994;2023-06-26T07:13:00;19.90;99.90
48666;DHT22;34452;50.796;4.994;2023-06-26T07:15:26;19.90;99.90
48666;DHT22;34452;50.796;4.994;2023-06-26T07:17:51;20.10;99.90
48666;DHT22;34452;50.796;4.994;2023-06-26T07:20:17;20.10;99.90
48666;DHT22;34452;50.796;4.994;2023-06-26T07:22:43;20.10;99.90
48666;DHT22;34452;50.796;4.994;2023-06-26T07:25:10;20.20;99.90
48666;DHT22;34452;50.796;4.994;2023-06-26T07:27:37;20.20;99.90
48666;DHT22;34452;50.796;4.994;2023-06-26T07:30:03;20.30;99.90
48666;DHT22;34452;50.796;4.994;2023-06-26T07:32:29;20.40;99.90
48666;DHT22;34452;50.796;4.994;2023-06-26T07:34:55;20.40;99.90
48666;DHT22;34452;50.796;4.994;2023-06-26T07:37:21;20.40;99.90
48666;DHT22;34452;50.796;4.994;2023-06-26T07:39:48;20.50;99.90
48666;DHT22;34452;50.796;4.994;2023-06-26T07:42:14;20.50;99.90
48666;DHT22;34452;50.796;4.994;2023-06-26T07:44:41;20.50;99.90
48666;DHT22;34452;50.796;4.994;2023-06-26T07:47:07;20.60;99.90
48666;DHT22;34452;50.796;4.994;2023-06-26T07:49:32;20.70;99.90
48666;DHT22;34452;50.796;4.994;2023-06-26T07:51:58;20.80;99.90
48666;DHT22;34452;50.796;4.994;2023-06-26T07:54:24;20.70;99.90
48666;DHT22;34452;50.796;4.994;2023-06-26T07:57:05;20.60;99.90
48666;DHT22;34452;50.796;4.994;2023-06-26T07:59:33;20.70;99.90
48666;DHT22;34452;50.796;4.994;2023-06-26T08:01:59;20.70;99.90
48666;DHT22;34452;50.796;4.994;2023-06-26T08:04:27;20.80;99.90
48666;DHT22;34452;50.796;4.994;2023-06-26T08:06:56;20.90;99.90
48666;DHT22;34452;50.796;4.994;2023-06-26T08:09:25;20.90;99.90
48666;DHT22;34452;50.796;4.994;2023-06-26T08:11:51;21.10;99.90
48666;DHT22;34452;50.796;4.994;2023-06-26T08:14:17;21.10;99.90
48666;DHT22;34452;50.796;4.994;2023-06-26T08:16:43;21.10;99.90
48666;DHT22;34452;50.796;4.994;2023-06-26T08:19:10;21.10;99.90
48666;DHT22;34452;50.796;4.994;2023-06-26T08:21:36;21.20;99.90
48666;DHT22;34452;50.796;4.994;2023-06-26T08:24:02;21.30;99.90
48666;DHT22;34452;50.796;4.994;2023-06-26T08:26:28;21.30;99.90
48666;DHT22;34452;50.796;4.994;2023-06-26T08:28:54;21.30;99.90
48666;DHT22;34452;50.796;4.994;2023-06-26T08:31:20;21.40;99.90
48666;DHT22;34452;50.796;4.994;2023-06-26T08:33:46;21.30;99.90
48666;DHT22;34452;50.796;4.994;2023-06-26T08:36:12;21.40;99.90
48666;DHT22;34452;50.796;4.994;2023-06-26T08:38:38;21.50;99.90
48666;DHT22;34452;50.796;4.994;2023-06-26T08:41:07;21.60;99.90
48666;DHT22;34452;50.796;4.994;2023-06-26T08:43:34;21.60;99.90
48666;DHT22;34452;50.796;4.994;2023-06-26T08:45:59;21.50;99.90
48666;DHT22;34452;50.796;4.994;2023-06-26T08:48:25;21.40;99.90
48666;DHT22;34452;50.796;4.994;2023-06-26T08:50:53;21.30;99.90
48666;DHT22;34452;50.796;4.994;2023-06-26T08:53:50;21.30;99.90
48666;DHT22;34452;50.796;4.994;2023-06-26T08:56:37;21.40;99.90
48666;DHT22;34452;50.796;4.994;2023-06-26T08:59:06;21.50;99.90
48666;DHT22;34452;50.796;4.994;2023-06-26T09:01:32;21.50;99.90
48666;DHT22;34452;50.796;4.994;2023-06-26T09:03:58;21.40;99.90
48666;DHT22;34452;50.796;4.994;2023-06-26T09:06:24;21.50;99.90
48666;DHT22;34452;50.796;4.994;2023-06-26T09:08:50;21.70;99.90
48666;DHT22;34452;50.796;4.994;2023-06-26T09:11:16;21.80;99.90
48666;DHT22;34452;50.796;4.994;2023-06-26T09:13:42;21.70;99.90
48666;DHT22;34452;50.796;4.994;2023-06-26T09:16:09;21.70;99.90
48666;DHT22;34452;50.796;4.994;2023-06-26T09:18:35;21.90;99.90
48666;DHT22;34452;50.796;4.994;2023-06-26T09:21:06;22.00;99.90
48666;DHT22;34452;50.796;4.994;2023-06-26T09:23:32;21.80;99.90
48666;DHT22;34452;50.796;4.994;2023-06-26T09:25:59;21.70;99.90
48666;DHT22;34452;50.796;4.994;2023-06-26T09:28:24;22.00;99.30
48666;DHT22;34452;50.796;4.994;2023-06-26T09:30:51;22.30;97.60
48666;DHT22;34452;50.796;4.994;2023-06-26T09:33:18;22.30;97.40
48666;DHT22;34452;50.796;4.994;2023-06-26T09:35:45;22.40;99.90
48666;DHT22;34452;50.796;4.994;2023-06-26T09:38:11;22.10;97.40
48666;DHT22;34452;50.796;4.994;2023-06-26T09:40:37;22.30;98.10
48666;DHT22;34452;50.796;4.994;2023-06-26T09:43:05;22.50;96.50
48666;DHT22;34452;50.796;4.994;2023-06-26T09:45:33;22.50;95.10
48666;DHT22;34452;50.796;4.994;2023-06-26T09:48:00;22.70;95.10
48666;DHT22;34452;50.796;4.994;2023-06-26T09:50:28;22.80;96.10
48666;DHT22;34452;50.796;4.994;2023-06-26T09:52:54;22.50;94.20
48666;DHT22;34452;50.796;4.994;2023-06-26T09:55:20;22.40;94.40
48666;DHT22;34452;50.796;4.994;2023-06-26T09:57:49;22.30;93.30
48666;DHT22;34452;50.796;4.994;2023-06-26T10:00:15;22.70;94.70
48666;DHT22;34452;50.796;4.994;2023-06-26T10:02:41;22.80;93.90
48666;DHT22;34452;50.796;4.994;2023-06-26T10:05:07;22.80;93.80
48666;DHT22;34452;50.796;4.994;2023-06-26T10:07:34;22.70;90.00
48666;DHT22;34452;50.796;4.994;2023-06-26T10:10:02;22.60;89.10
48666;DHT22;34452;50.796;4.994;2023-06-26T10:12:30;22.70;90.20
48666;DHT22;34452;50.796;4.994;2023-06-26T10:14:57;22.90;88.70
48666;DHT22;34452;50.796;4.994;2023-06-26T10:17:25;22.90;91.70
48666;DHT22;34452;50.796;4.994;2023-06-26T10:19:53;23.10;91.00
48666;DHT22;34452;50.796;4.994;2023-06-26T10:22:22;23.40;91.20
48666;DHT22;34452;50.796;4.994;2023-06-26T10:24:51;23.60;90.80
48666;DHT22;34452;50.796;4.994;2023-06-26T10:27:20;23.50;83.10
48666;DHT22;34452;50.796;4.994;2023-06-26T10:29:49;23.10;83.20
48666;DHT22;34452;50.796;4.994;2023-06-26T10:32:16;23.20;85.30
48666;DHT22;34452;50.796;4.994;2023-06-26T10:34:43;23.50;90.60
48666;DHT22;34452;50.796;4.994;2023-06-26T10:37:09;23.50;80.30
48666;DHT22;34452;50.796;4.994;2023-06-26T10:39:47;23.40;85.90
48666;DHT22;34452;50.796;4.994;2023-06-26T10:42:15;23.50;84.00
48666;DHT22;34452;50.796;4.994;2023-06-26T10:44:42;23.60;84.90
48666;DHT22;34452;50.796;4.994;2023-06-26T10:47:09;23.80;80.30
48666;DHT22;34452;50.796;4.994;2023-06-26T10:49:36;23.80;83.20
48666;DHT22;34452;50.796;4.994;2023-06-26T10:52:02;23.90;79.90
48666;DHT22;34452;50.796;4.994;2023-06-26T10:54:31;23.90;75.70
48666;DHT22;34452;50.796;4.994;2023-06-26T10:56:57;24.10;77.80
48666;DHT22;34452;50.796;4.994;2023-06-26T10:59:26;24.20;75.80
48666;DHT22;34452;50.796;4.994;2023-06-26T11:02:04;24.10;73.60
48666;DHT22;34452;50.796;4.994;2023-06-26T11:04:46;24.00;74.00
48666;DHT22;34452;50.796;4.994;2023-06-26T11:07:23;23.90;78.30
48666;DHT22;34452;50.796;4.994;2023-06-26T11:10:08;23.80;75.50
48666;DHT22;34452;50.796;4.994;2023-06-26T11:12:37;23.80;74.50
48666;DHT22;34452;50.796;4.994;2023-06-26T11:17:49;24.10;76.70
48666;DHT22;34452;50.796;4.994;2023-06-26T11:20:16;23.90;74.50
48666;DHT22;34452;50.796;4.994;2023-06-26T11:22:43;23.60;77.00
48666;DHT22;34452;50.796;4.994;2023-06-26T11:25:09;23.50;77.00
48666;DHT22;34452;50.796;4.994;2023-06-26T11:30:05;23.10;72.10
48666;DHT22;34452;50.796;4.994;2023-06-26T11:32:31;22.90;72.50
48666;DHT22;34452;50.796;4.994;2023-06-26T11:34:59;22.80;74.50
48666;DHT22;34452;50.796;4.994;2023-06-26T11:37:25;22.70;71.70
48666;DHT22;34452;50.796;4.994;2023-06-26T11:39:52;22.80;75.00
48666;DHT22;34452;50.796;4.994;2023-06-26T11:42:19;23.00;74.10
48666;DHT22;34452;50.796;4.994;2023-06-26T11:44:45;23.50;74.70
48666;DHT22;34452;50.796;4.994;2023-06-26T11:47:13;23.70;74.00
48666;DHT22;34452;50.796;4.994;2023-06-26T11:49:42;23.40;71.10
48666;DHT22;34452;50.796;4.994;2023-06-26T11:52:08;23.80;71.00
48666;DHT22;34452;50.796;4.994;2023-06-26T11:54:34;24.10;69.10
48666;DHT22;34452;50.796;4.994;2023-06-26T11:57:00;24.30;67.70
48666;DHT22;34452;50.796;4.994;2023-06-26T11:59:45;24.30;66.70
48666;DHT22;34452;50.796;4.994;2023-06-26T12:02:12;23.90;67.20
48666;DHT22;34452;50.796;4.994;2023-06-26T12:04:41;23.70;67.00
48666;DHT22;34452;50.796;4.994;2023-06-26T12:07:08;23.50;66.10
48666;DHT22;34452;50.796;4.994;2023-06-26T12:09:54;23.40;67.00
48666;DHT22;34452;50.796;4.994;2023-06-26T12:12:20;23.40;67.70
48666;DHT22;34452;50.796;4.994;2023-06-26T12:14:47;23.70;71.60
48666;DHT22;34452;50.796;4.994;2023-06-26T12:17:13;23.80;66.60
48666;DHT22;34452;50.796;4.994;2023-06-26T12:19:43;23.70;66.40
48666;DHT22;34452;50.796;4.994;2023-06-26T12:22:09;23.50;69.00
48666;DHT22;34452;50.796;4.994;2023-06-26T12:24:37;23.40;66.60
48666;DHT22;34452;50.796;4.994;2023-06-26T12:27:08;23.30;67.30
48666;DHT22;34452;50.796;4.994;2023-06-26T12:29:35;23.30;68.40
48666;DHT22;34452;50.796;4.994;2023-06-26T12:32:01;23.50;67.80
48666;DHT22;34452;50.796;4.994;2023-06-26T12:34:28;23.80;69.00
48666;DHT22;34452;50.796;4.994;2023-06-26T12:37:00;23.80;65.30
48666;DHT22;34452;50.796;4.994;2023-06-26T12:39:26;24.10;67.40
48666;DHT22;34452;50.796;4.994;2023-06-26T12:41:57;24.50;68.30
48666;DHT22;34452;50.796;4.994;2023-06-26T12:44:53;24.60;71.70
48666;DHT22;34452;50.796;4.994;2023-06-26T12:47:25;24.70;69.20
48666;DHT22;34452;50.796;4.994;2023-06-26T12:49:52;24.40;65.70
48666;DHT22;34452;50.796;4.994;2023-06-26T12:52:19;24.80;65.90
48666;DHT22;34452;50.796;4.994;2023-06-26T12:54:46;24.80;63.30
48666;DHT22;34452;50.796;4.994;2023-06-26T12:57:13;24.90;67.20
48666;DHT22;34452;50.796;4.994;2023-06-26T12:59:40;25.00;59.50
48666;DHT22;34452;50.796;4.994;2023-06-26T13:02:06;25.40;64.20
48666;DHT22;34452;50.796;4.994;2023-06-26T13:04:32;25.60;60.30
48666;DHT22;34452;50.796;4.994;2023-06-26T13:06:58;25.50;57.80
48666;DHT22;34452;50.796;4.994;2023-06-26T13:09:25;25.60;62.30
48666;DHT22;34452;50.796;4.994;2023-06-26T13:11:51;25.90;62.10
48666;DHT22;34452;50.796;4.994;2023-06-26T13:14:17;26.10;64.00
48666;DHT22;34452;50.796;4.994;2023-06-26T13:16:43;26.10;59.90
48666;DHT22;34452;50.796;4.994;2023-06-26T13:19:09;26.30;57.70
48666;DHT22;34452;50.796;4.994;2023-06-26T13:21:35;26.20;57.20
48666;DHT22;34452;50.796;4.994;2023-06-26T13:24:01;26.10;55.20
48666;DHT22;34452;50.796;4.994;2023-06-26T13:26:29;26.20;60.30
48666;DHT22;34452;50.796;4.994;2023-06-26T13:28:55;26.40;58.80
48666;DHT22;34452;50.796;4.994;2023-06-26T13:31:21;26.30;55.40
48666;DHT22;34452;50.796;4.994;2023-06-26T13:33:47;26.00;57.90
48666;DHT22;34452;50.796;4.994;2023-06-26T13:36:15;25.80;57.40
48666;DHT22;34452;50.796;4.994;2023-06-26T13:38:41;25.80;58.90
48666;DHT22;34452;50.796;4.994;2023-06-26T13:41:07;25.60;56.20
48666;DHT22;34452;50.796;4.994;2023-06-26T13:43:33;25.70;55.30
48666;DHT22;34452;50.796;4.994;2023-06-26T13:45:59;25.40;54.10
48666;DHT22;34452;50.796;4.994;2023-06-26T13:48:25;25.10;55.60
48666;DHT22;34452;50.796;4.994;2023-06-26T13:50:52;24.70;56.00
48666;DHT22;34452;50.796;4.994;2023-06-26T13:53:18;24.50;57.30
48666;DHT22;34452;50.796;4.994;2023-06-26T13:55:43;24.70;58.20
48666;DHT22;34452;50.796;4.994;2023-06-26T13:58:10;25.10;56.10
48666;DHT22;34452;50.796;4.994;2023-06-26T14:00:37;25.40;55.40
48666;DHT22;34452;50.796;4.994;2023-06-26T14:03:04;25.80;54.80
48666;DHT22;34452;50.796;4.994;2023-06-26T14:05:30;26.10;53.30
48666;DHT22;34452;50.796;4.994;2023-06-26T14:07:56;26.30;54.00
48666;DHT22;34452;50.796;4.994;2023-06-26T14:10:22;26.60;54.30
48666;DHT22;34452;50.796;4.994;2023-06-26T14:12:48;26.50;54.20
48666;DHT22;34452;50.796;4.994;2023-06-26T14:15:14;26.20;53.00
48666;DHT22;34452;50.796;4.994;2023-06-26T14:17:40;26.20;55.40
48666;DHT22;34452;50.796;4.994;2023-06-26T14:20:07;26.30;51.90
48666;DHT22;34452;50.796;4.994;2023-06-26T14:22:39;26.40;51.60
48666;DHT22;34452;50.796;4.994;2023-06-26T14:25:06;26.40;52.70
48666;DHT22;34452;50.796;4.994;2023-06-26T14:27:32;26.60;51.00
48666;DHT22;34452;50.796;4.994;2023-06-26T14:29:58;26.50;51.90
48666;DHT22;34452;50.796;4.994;2023-06-26T14:32:23;26.20;51.70
48666;DHT22;34452;50.796;4.994;2023-06-26T14:34:49;25.80;50.80
48666;DHT22;34452;50.796;4.994;2023-06-26T14:37:15;25.60;53.90
48666;DHT22;34452;50.796;4.994;2023-06-26T14:39:41;25.40;52.80
48666;DHT22;34452;50.796;4.994;2023-06-26T14:42:07;25.60;54.80
48666;DHT22;34452;50.796;4.994;2023-06-26T14:44:33;25.90;52.90
48666;DHT22;34452;50.796;4.994;2023-06-26T14:46:58;26.00;55.60
48666;DHT22;34452;50.796;4.994;2023-06-26T14:49:24;25.90;55.20
48666;DHT22;34452;50.796;4.994;2023-06-26T14:51:50;26.20;55.20
48666;DHT22;34452;50.796;4.994;2023-06-26T14:54:15;26.50;52.90
48666;DHT22;34452;50.796;4.994;2023-06-26T14:56:41;26.30;52.50
48666;DHT22;34452;50.796;4.994;2023-06-26T14:59:09;26.00;55.10
48666;DHT22;34452;50.796;4.994;2023-06-26T15:01:35;25.70;52.90
48666;DHT22;34452;50.796;4.994;2023-06-26T15:04:01;25.90;54.20
48666;DHT22;34452;50.796;4.994;2023-06-26T15:06:27;26.20;53.00
48666;DHT22;34452;50.796;4.994;2023-06-26T15:08:52;25.90;52.40
48666;DHT22;34452;50.796;4.994;2023-06-26T15:11:18;25.50;52.30
48666;DHT22;34452;50.796;4.994;2023-06-26T15:13:44;25.20;54.80
48666;DHT22;34452;50.796;4.994;2023-06-26T15:16:09;24.90;53.10
48666;DHT22;34452;50.796;4.994;2023-06-26T15:18:35;24.60;54.60
48666;DHT22;34452;50.796;4.994;2023-06-26T15:21:01;24.50;53.80
48666;DHT22;34452;50.796;4.994;2023-06-26T15:23:29;24.30;54.20
48666;DHT22;34452;50.796;4.994;2023-06-26T15:25:55;24.70;55.50
48666;DHT22;34452;50.796;4.994;2023-06-26T15:28:20;25.30;55.60
48666;DHT22;34452;50.796;4.994;2023-06-26T15:30:46;25.30;54.30
48666;DHT22;34452;50.796;4.994;2023-06-26T15:33:12;25.10;53.70
48666;DHT22;34452;50.796;4.994;2023-06-26T15:35:38;24.80;54.40
48666;DHT22;34452;50.796;4.994;2023-06-26T15:38:04;24.40;55.80
48666;DHT22;34452;50.796;4.994;2023-06-26T15:40:30;24.20;55.90